createdAt,value
2017-12-11T00:00:59.161Z,4.10
2017-12-11T00:03:26.696Z,4.10
2017-12-11T00:05:55.008Z,4.10
2017-12-11T00:08:22.524Z,4.10
2017-12-11T00:10:50.085Z,4.10
2017-12-11T00:13:19.132Z,4.20
2017-12-11T00:15:46.680Z,4.20
2017-12-11T00:18:14.197Z,4.10
2017-12-11T00:20:41.753Z,4.10
2017-12-11T00:23:09.307Z,4.10
2017-12-11T00:25:36.851Z,4.10
2017-12-11T00:28:04.397Z,4.10
2017-12-11T00:30:31.919Z,4.00
2017-12-11T00:32:59.460Z,4.10
2017-12-11T00:35:28.349Z,4.10
2017-12-11T00:37:56.651Z,4.00
2017-12-11T00:40:24.197Z,4.00
2017-12-11T00:42:51.721Z,4.10
2017-12-11T00:45:20.037Z,4.00
2017-12-11T00:47:47.607Z,4.00
2017-12-11T00:50:15.171Z,4.10
2017-12-11T00:52:42.705Z,4.10
2017-12-11T00:55:11.005Z,4.00
2017-12-11T00:57:38.568Z,4.00
2017-12-11T01:00:06.094Z,4.00
2017-12-11T01:02:33.660Z,4.00
2017-12-11T01:05:01.181Z,4.00
2017-12-11T01:07:28.728Z,4.00
2017-12-11T01:09:56.251Z,4.00
2017-12-11T01:12:23.811Z,4.10
2017-12-11T01:14:51.340Z,4.00
2017-12-11T01:17:18.968Z,4.00
2017-12-11T01:19:46.448Z,4.00
2017-12-11T01:22:13.972Z,4.00
2017-12-11T01:24:42.281Z,4.00
2017-12-11T01:27:09.813Z,4.00
2017-12-11T01:29:38.144Z,4.10
2017-12-11T01:32:05.672Z,4.10
2017-12-11T01:34:33.238Z,4.10
2017-12-11T01:37:00.773Z,4.10
2017-12-11T01:39:28.328Z,4.10
2017-12-11T01:41:56.617Z,4.10
2017-12-11T01:44:24.168Z,4.10
2017-12-11T01:46:51.693Z,4.10
2017-12-11T01:49:19.246Z,4.20
2017-12-11T01:51:46.769Z,4.10
2017-12-11T01:54:14.305Z,4.10
2017-12-11T01:56:41.827Z,4.00
2017-12-11T01:59:09.368Z,4.00
2017-12-11T02:01:37.005Z,4.00
2017-12-11T02:04:04.544Z,3.90
2017-12-11T02:06:32.069Z,3.90
2017-12-11T02:09:00.382Z,3.90
2017-12-11T02:11:27.925Z,3.90
2017-12-11T02:13:56.240Z,4.10
2017-12-11T02:16:23.817Z,4.00
2017-12-11T02:18:51.336Z,4.10
2017-12-11T02:21:18.937Z,4.00
2017-12-11T02:23:46.495Z,4.10
2017-12-11T02:26:14.029Z,4.10
2017-12-11T02:28:41.567Z,4.10
2017-12-11T02:31:09.885Z,4.00
2017-12-11T02:33:37.417Z,4.00
2017-12-11T02:36:04.966Z,4.10
2017-12-11T02:38:33.306Z,4.10
2017-12-11T02:41:00.861Z,4.10
2017-12-11T02:43:28.409Z,4.10
2017-12-11T02:45:55.946Z,4.10
2017-12-11T02:48:23.680Z,4.10
2017-12-11T02:50:52.001Z,4.10
2017-12-11T02:53:19.521Z,4.00
2017-12-11T02:55:47.852Z,4.10
2017-12-11T02:58:15.383Z,4.00
2017-12-11T03:00:42.908Z,4.10
2017-12-11T03:03:10.489Z,4.10
2017-12-11T03:05:38.012Z,4.10
2017-12-11T03:08:05.573Z,4.20
2017-12-11T03:10:33.864Z,4.00
2017-12-11T03:13:02.220Z,3.90
2017-12-11T03:15:29.784Z,3.90
2017-12-11T03:17:57.344Z,3.90
2017-12-11T03:20:24.906Z,3.90
2017-12-11T03:22:52.543Z,3.90
2017-12-11T03:25:20.209Z,3.80
2017-12-11T03:27:47.749Z,3.80
2017-12-11T03:30:15.739Z,3.90
2017-12-11T03:32:43.300Z,4.00
2017-12-11T03:35:10.872Z,4.10
2017-12-11T03:37:38.405Z,4.10
2017-12-11T03:40:05.996Z,4.20
2017-12-11T03:42:33.501Z,4.10
2017-12-11T03:45:01.821Z,4.30
2017-12-11T03:47:29.361Z,4.30
2017-12-11T03:49:56.904Z,4.40
2017-12-11T03:52:25.188Z,4.60
2017-12-11T03:54:52.737Z,4.50
2017-12-11T03:57:21.044Z,4.60
2017-12-11T03:59:48.651Z,4.60
2017-12-11T04:02:16.195Z,4.70
2017-12-11T04:04:44.525Z,4.80
2017-12-11T04:07:12.143Z,4.80
2017-12-11T04:09:39.668Z,4.90
2017-12-11T04:12:07.222Z,5.00
2017-12-11T04:14:34.744Z,4.90
2017-12-11T04:17:02.288Z,4.90
2017-12-11T04:19:29.838Z,4.90
2017-12-11T04:21:57.372Z,4.90
2017-12-11T04:24:25.732Z,4.90
2017-12-11T04:26:53.272Z,4.90
2017-12-11T04:29:20.820Z,4.90
2017-12-11T04:31:48.359Z,4.90
2017-12-11T04:34:15.913Z,5.00
2017-12-11T04:36:43.441Z,5.00
2017-12-11T04:39:11.781Z,4.90
2017-12-11T04:41:39.320Z,4.80
2017-12-11T04:44:06.890Z,4.90
2017-12-11T04:46:34.400Z,4.70
2017-12-11T04:49:01.941Z,4.60
2017-12-11T04:51:29.493Z,4.50
2017-12-11T04:53:58.034Z,4.40
2017-12-11T04:56:25.598Z,4.30
2017-12-11T04:58:53.127Z,4.40
2017-12-11T05:01:21.452Z,4.40
2017-12-11T05:03:48.969Z,4.40
2017-12-11T05:06:17.320Z,4.30
2017-12-11T05:08:44.843Z,4.30
2017-12-11T05:11:12.366Z,4.20
2017-12-11T05:13:40.681Z,4.20
2017-12-11T05:16:08.200Z,4.20
2017-12-11T05:18:36.579Z,4.20
2017-12-11T05:21:04.977Z,4.20
2017-12-11T05:23:32.530Z,4.20
2017-12-11T05:26:00.838Z,4.10
2017-12-11T05:28:28.378Z,4.10
2017-12-11T05:30:55.916Z,4.10
2017-12-11T05:33:24.243Z,4.10
2017-12-11T05:35:51.780Z,4.10
2017-12-11T05:38:19.322Z,4.10
2017-12-11T05:40:47.614Z,4.10
2017-12-11T05:43:15.152Z,4.10
2017-12-11T05:45:43.499Z,4.10
2017-12-11T05:48:11.025Z,4.10
2017-12-11T05:50:38.562Z,4.10
2017-12-11T05:53:06.112Z,4.10
2017-12-11T05:55:34.421Z,4.10
2017-12-11T05:58:01.965Z,4.10
2017-12-11T06:00:29.488Z,4.10
2017-12-11T06:02:57.164Z,4.10
2017-12-11T06:05:25.480Z,4.10
2017-12-11T06:07:53.037Z,4.10
2017-12-11T06:10:20.590Z,4.10
2017-12-11T06:12:48.117Z,4.10
2017-12-11T06:15:16.429Z,4.20
2017-12-11T06:17:43.971Z,4.20
2017-12-11T06:20:12.268Z,4.10
2017-12-11T06:22:39.814Z,4.10
2017-12-11T06:25:07.385Z,4.20
2017-12-11T06:27:35.449Z,4.30
2017-12-11T06:30:02.981Z,4.30
2017-12-11T06:32:30.523Z,4.30
2017-12-11T06:34:58.830Z,4.30
2017-12-11T06:37:26.348Z,4.30
2017-12-11T06:39:53.888Z,4.30
2017-12-11T06:42:21.413Z,4.40
2017-12-11T06:44:48.949Z,4.30
2017-12-11T06:47:17.248Z,4.40
2017-12-11T06:49:44.809Z,4.40
2017-12-11T06:52:12.340Z,4.40
2017-12-11T06:54:40.661Z,4.50
2017-12-11T06:57:08.177Z,4.50
2017-12-11T06:59:36.485Z,4.50
2017-12-11T07:02:04.019Z,4.50
2017-12-11T07:04:31.621Z,4.60
2017-12-11T07:06:59.165Z,4.60
2017-12-11T07:09:26.685Z,4.60
2017-12-11T07:11:55.002Z,4.60
2017-12-11T07:14:22.517Z,4.60
2017-12-11T07:16:50.862Z,4.60
2017-12-11T07:19:18.396Z,4.60
2017-12-11T07:21:45.946Z,4.60
2017-12-11T07:24:14.328Z,4.60
2017-12-11T07:26:41.872Z,4.70
2017-12-11T07:29:09.401Z,4.70
2017-12-11T07:31:37.717Z,4.60
2017-12-11T07:34:05.245Z,4.60
2017-12-11T07:36:33.563Z,4.60
2017-12-11T07:39:01.091Z,4.50
2017-12-11T07:41:29.391Z,4.50
2017-12-11T07:43:56.942Z,4.50
2017-12-11T07:46:24.491Z,4.50
2017-12-11T07:48:52.808Z,4.60
2017-12-11T07:51:20.329Z,4.60
2017-12-11T07:53:47.876Z,4.50
2017-12-11T07:56:16.196Z,4.40
2017-12-11T07:58:44.501Z,4.50
2017-12-11T08:01:12.029Z,4.50
2017-12-11T08:03:40.374Z,4.40
2017-12-11T08:06:07.897Z,4.40
2017-12-11T08:08:35.495Z,4.40
2017-12-11T08:11:03.018Z,4.40
2017-12-11T08:13:30.564Z,4.40
2017-12-11T08:15:58.093Z,4.40
2017-12-11T08:18:25.626Z,4.40
2017-12-11T08:20:53.165Z,4.50
2017-12-11T08:23:20.686Z,4.60
2017-12-11T08:25:49.203Z,4.60
2017-12-11T08:28:16.757Z,4.60
2017-12-11T08:30:44.307Z,4.60
2017-12-11T08:33:11.860Z,4.60
2017-12-11T08:35:40.164Z,4.60
2017-12-11T08:38:07.689Z,4.60
2017-12-11T08:40:36.012Z,4.60
2017-12-11T08:43:03.525Z,4.60
2017-12-11T08:45:31.828Z,4.70
2017-12-11T08:47:59.362Z,4.70
2017-12-11T08:50:27.668Z,4.70
2017-12-11T08:52:55.208Z,4.60
2017-12-11T08:55:23.520Z,4.60
2017-12-11T08:57:51.038Z,4.60
2017-12-11T09:00:19.349Z,4.60
2017-12-11T09:02:46.906Z,4.60
2017-12-11T09:05:14.428Z,4.70
2017-12-11T09:07:42.743Z,4.70
2017-12-11T09:10:10.285Z,4.70
2017-12-11T09:12:37.833Z,4.70
2017-12-11T09:15:06.148Z,4.80
2017-12-11T09:17:33.670Z,4.80
2017-12-11T09:20:01.972Z,4.80
2017-12-11T09:22:29.513Z,4.80
2017-12-11T09:24:57.058Z,4.80
2017-12-11T09:27:25.371Z,4.80
2017-12-11T09:29:52.903Z,4.80
2017-12-11T09:32:21.240Z,4.80
2017-12-11T09:34:48.757Z,4.80
2017-12-11T09:37:16.305Z,4.90
2017-12-11T09:39:43.826Z,4.90
2017-12-11T09:42:12.133Z,4.90
2017-12-11T09:44:39.655Z,4.90
2017-12-11T09:47:07.973Z,4.90
2017-12-11T09:49:35.512Z,4.90
2017-12-11T09:52:03.061Z,5.00
2017-12-11T09:54:31.377Z,5.10
2017-12-11T09:56:58.927Z,5.10
2017-12-11T09:59:26.478Z,5.30
2017-12-11T10:01:54.017Z,5.40
2017-12-11T10:04:22.329Z,5.60
2017-12-11T10:06:49.853Z,5.50
2017-12-11T10:09:18.157Z,5.50
2017-12-11T10:11:45.677Z,5.50
2017-12-11T10:14:13.226Z,5.50
2017-12-11T10:16:41.412Z,5.50
2017-12-11T10:19:08.945Z,5.50
2017-12-11T10:21:37.274Z,5.50
2017-12-11T10:24:04.812Z,5.40
2017-12-11T10:26:32.353Z,5.40
2017-12-11T10:28:59.884Z,5.30
2017-12-11T10:31:27.461Z,5.30
2017-12-11T10:33:55.750Z,5.20
2017-12-11T10:36:23.310Z,5.20
2017-12-11T10:38:50.860Z,5.30
2017-12-11T10:41:19.168Z,5.30
2017-12-11T10:43:46.697Z,5.30
2017-12-11T10:46:15.022Z,5.40
2017-12-11T10:48:42.561Z,5.30
2017-12-11T10:51:10.084Z,5.40
2017-12-11T10:53:38.405Z,5.40
2017-12-11T10:56:05.932Z,5.40
2017-12-11T10:58:33.480Z,5.40
2017-12-11T11:01:01.032Z,5.40
2017-12-11T11:03:29.353Z,5.50
2017-12-11T11:05:56.881Z,5.50
2017-12-11T11:08:24.455Z,5.50
2017-12-11T11:10:51.988Z,5.50
2017-12-11T11:13:19.560Z,5.50
2017-12-11T11:15:47.085Z,5.50
2017-12-11T11:18:14.618Z,5.50
2017-12-11T11:20:42.974Z,5.50
2017-12-11T11:23:10.495Z,5.60
2017-12-11T11:25:38.817Z,5.50
2017-12-11T11:28:06.372Z,5.50
2017-12-11T11:30:33.920Z,5.60
2017-12-11T11:33:01.476Z,5.80
2017-12-11T11:35:29.035Z,5.80
2017-12-11T11:37:56.557Z,5.70
2017-12-11T11:40:24.098Z,5.60
2017-12-11T11:42:51.624Z,5.60
2017-12-11T11:45:19.165Z,5.60
2017-12-11T11:47:46.685Z,5.70
2017-12-11T11:50:14.229Z,5.60
2017-12-11T11:52:41.749Z,5.60
2017-12-11T11:55:09.297Z,5.60
2017-12-11T11:57:37.883Z,5.80
2017-12-11T12:00:06.212Z,5.70
2017-12-11T12:02:33.774Z,5.70
2017-12-11T12:05:01.409Z,5.70
2017-12-11T12:07:28.938Z,5.70
2017-12-11T12:09:57.245Z,5.50
2017-12-11T12:12:24.764Z,5.50
2017-12-11T12:14:53.077Z,5.50
2017-12-11T12:17:20.625Z,5.40
2017-12-11T12:19:48.176Z,5.50
2017-12-11T12:22:15.716Z,5.60
2017-12-11T12:24:44.004Z,5.70
2017-12-11T12:27:12.303Z,5.80
2017-12-11T12:29:39.834Z,5.80
2017-12-11T12:32:08.153Z,5.70
2017-12-11T12:34:35.696Z,5.70
2017-12-11T12:37:03.246Z,5.60
2017-12-11T12:39:30.797Z,5.60
2017-12-11T12:41:59.085Z,5.50
2017-12-11T12:44:26.638Z,5.50
2017-12-11T12:46:54.925Z,5.60
2017-12-11T12:49:22.612Z,5.60
2017-12-11T12:51:50.142Z,5.60
2017-12-11T12:54:17.689Z,5.80
2017-12-11T12:56:46.002Z,5.80
2017-12-11T12:59:13.537Z,5.70
2017-12-11T13:01:41.842Z,6.00
2017-12-11T13:04:09.356Z,6.00
2017-12-11T13:06:37.671Z,6.10
2017-12-11T13:09:05.200Z,6.10
2017-12-11T13:11:33.532Z,6.00
2017-12-11T13:14:01.045Z,6.00
2017-12-11T13:16:29.356Z,6.00
2017-12-11T13:18:56.882Z,6.00
2017-12-11T13:21:25.201Z,5.90
2017-12-11T13:23:52.847Z,5.90
2017-12-11T13:26:20.389Z,6.00
2017-12-11T13:28:48.316Z,6.10
2017-12-11T13:31:15.860Z,6.00
2017-12-11T13:33:43.381Z,6.10
2017-12-11T13:36:10.916Z,6.10
2017-12-11T13:38:39.216Z,6.10
2017-12-11T13:41:06.757Z,6.00
2017-12-11T13:43:34.296Z,6.00
2017-12-11T13:46:01.844Z,6.00
2017-12-11T13:48:29.393Z,6.00
2017-12-11T13:50:56.938Z,6.00
2017-12-11T13:53:25.230Z,6.00
2017-12-11T13:55:52.764Z,6.00
2017-12-11T13:58:20.304Z,6.00
2017-12-11T14:00:47.826Z,6.10
2017-12-11T14:03:15.374Z,6.00
2017-12-11T14:05:42.909Z,6.20
2017-12-11T14:08:11.216Z,6.20
2017-12-11T14:10:38.741Z,6.20
2017-12-11T14:13:07.058Z,6.10
2017-12-11T14:15:34.608Z,6.10
2017-12-11T14:18:02.129Z,6.10
2017-12-11T14:20:29.663Z,6.20
2017-12-11T14:22:57.184Z,6.10
2017-12-11T14:25:24.741Z,6.00
2017-12-11T14:27:52.273Z,6.00
2017-12-11T14:30:20.622Z,6.00
2017-12-11T14:32:48.168Z,6.00
2017-12-11T14:35:15.716Z,6.20
2017-12-11T14:37:43.250Z,6.20
2017-12-11T14:40:11.602Z,6.20
2017-12-11T14:42:39.125Z,6.10
2017-12-11T14:45:06.686Z,6.10
2017-12-11T14:47:34.201Z,6.10
2017-12-11T14:50:02.513Z,5.90
2017-12-11T14:52:30.064Z,5.90
2017-12-11T14:54:57.609Z,5.80
2017-12-11T14:57:25.189Z,5.80
2017-12-11T14:59:52.733Z,5.70
2017-12-11T15:02:20.285Z,5.70
2017-12-11T15:04:47.818Z,5.60
2017-12-11T15:07:15.362Z,5.60
2017-12-11T15:09:43.649Z,5.70
2017-12-11T15:12:11.975Z,5.70
2017-12-11T15:14:39.498Z,5.70
2017-12-11T15:17:07.037Z,5.60
2017-12-11T15:19:35.336Z,5.60
2017-12-11T15:22:02.906Z,5.60
2017-12-11T15:24:30.440Z,5.60
2017-12-11T15:26:57.985Z,5.60
2017-12-11T15:29:26.313Z,5.50
2017-12-11T15:31:53.861Z,5.50
2017-12-11T15:34:21.382Z,5.50
2017-12-11T15:36:48.938Z,5.50
2017-12-11T15:39:17.229Z,5.40
2017-12-11T15:41:44.763Z,5.40
2017-12-11T15:44:13.078Z,5.40
2017-12-11T15:46:40.643Z,5.40
2017-12-11T15:49:08.195Z,5.40
2017-12-11T15:51:35.797Z,5.30
2017-12-11T15:54:03.338Z,5.40
2017-12-11T15:56:30.985Z,5.40
2017-12-11T15:58:58.648Z,5.40
2017-12-11T16:01:26.206Z,5.30
2017-12-11T16:03:53.809Z,5.30
2017-12-11T16:06:21.331Z,5.30
2017-12-11T16:08:48.888Z,5.30
2017-12-11T16:11:16.444Z,5.30
2017-12-11T16:13:44.018Z,5.20
2017-12-11T16:16:11.568Z,5.10
2017-12-11T16:18:39.093Z,5.20
2017-12-11T16:21:07.432Z,5.10
2017-12-11T16:23:34.964Z,5.10
2017-12-11T16:26:02.525Z,5.10
2017-12-11T16:28:30.072Z,5.10
2017-12-11T16:30:57.620Z,5.10
2017-12-11T16:33:26.023Z,5.10
2017-12-11T16:35:53.586Z,5.10
2017-12-11T16:38:21.152Z,5.10
2017-12-11T16:40:48.708Z,5.10
2017-12-11T16:43:16.970Z,5.20
2017-12-11T16:45:44.753Z,5.20
2017-12-11T16:48:12.299Z,5.20
2017-12-11T16:50:39.854Z,5.20
2017-12-11T16:53:07.405Z,5.20
2017-12-11T16:55:34.953Z,5.10
2017-12-11T16:58:02.520Z,5.10
2017-12-11T17:00:30.059Z,5.10
2017-12-11T17:02:58.386Z,5.00
2017-12-11T17:05:25.930Z,5.00
2017-12-11T17:07:53.489Z,4.90
2017-12-11T17:10:21.028Z,4.90
2017-12-11T17:12:49.372Z,4.90
2017-12-11T17:15:16.900Z,4.90
2017-12-11T17:17:44.454Z,4.90
2017-12-11T17:20:11.989Z,4.90
2017-12-11T17:22:39.540Z,4.80
2017-12-11T17:25:07.895Z,4.80
2017-12-11T17:27:36.236Z,4.80
2017-12-11T17:30:03.761Z,4.80
2017-12-11T17:32:31.306Z,4.80
2017-12-11T17:34:59.618Z,4.80
2017-12-11T17:37:27.160Z,4.80
2017-12-11T17:39:54.710Z,4.80
2017-12-11T17:42:23.029Z,4.80
2017-12-11T17:44:50.549Z,4.80
2017-12-11T17:47:18.865Z,4.80
2017-12-11T17:49:46.402Z,4.70
2017-12-11T17:52:13.949Z,4.80
2017-12-11T17:54:41.473Z,4.80
2017-12-11T17:57:09.038Z,4.80
2017-12-11T17:59:36.582Z,4.70
2017-12-11T18:02:04.118Z,4.80
2017-12-11T18:04:31.671Z,4.80
2017-12-11T18:06:59.203Z,4.70
2017-12-11T18:09:26.750Z,4.70
2017-12-11T18:11:55.048Z,4.70
2017-12-11T18:14:22.597Z,4.70
2017-12-11T18:16:50.137Z,4.70
2017-12-11T18:19:17.721Z,4.80
2017-12-11T18:21:45.270Z,4.80
2017-12-11T18:24:13.607Z,4.70
2017-12-11T18:26:41.195Z,4.70
2017-12-11T18:29:08.750Z,4.70
2017-12-11T18:31:36.285Z,4.70
2017-12-11T18:34:03.870Z,4.60
2017-12-11T18:36:31.429Z,4.60
2017-12-11T18:38:58.945Z,4.60
2017-12-11T18:41:26.610Z,4.50
2017-12-11T18:43:54.976Z,4.60
2017-12-11T18:46:22.545Z,4.50
2017-12-11T18:48:50.110Z,4.50
2017-12-11T18:51:17.673Z,4.50
2017-12-11T18:53:45.226Z,4.50
2017-12-11T18:56:12.885Z,4.50
2017-12-11T18:58:40.448Z,4.40
2017-12-11T19:01:08.005Z,4.50
2017-12-11T19:03:35.531Z,4.40
2017-12-11T19:06:03.889Z,4.40
2017-12-11T19:08:31.475Z,4.40
2017-12-11T19:10:59.020Z,4.40
2017-12-11T19:13:27.357Z,4.40
2017-12-11T19:15:54.906Z,4.40
2017-12-11T19:18:22.473Z,4.40
2017-12-11T19:20:50.013Z,4.50
2017-12-11T19:23:17.578Z,4.50
2017-12-11T19:25:47.695Z,4.50
2017-12-11T19:28:15.931Z,4.40
2017-12-11T19:30:47.286Z,4.50
2017-12-11T19:33:17.616Z,4.40
2017-12-11T19:35:45.917Z,4.50
2017-12-11T19:38:13.465Z,4.50
2017-12-11T19:40:41.010Z,4.50
2017-12-11T19:43:09.369Z,4.40
2017-12-11T19:45:37.198Z,4.50
2017-12-11T19:48:04.756Z,4.50
2017-12-11T19:50:32.864Z,4.50
2017-12-11T19:53:00.431Z,4.50
2017-12-11T19:55:28.748Z,4.50
2017-12-11T19:57:56.304Z,4.50
2017-12-11T20:00:23.856Z,4.50
2017-12-11T20:02:51.389Z,4.50
2017-12-11T20:05:18.959Z,4.60
2017-12-11T20:07:47.265Z,4.60
2017-12-11T20:10:14.831Z,4.50
2017-12-11T20:12:42.380Z,4.60
2017-12-11T20:15:09.922Z,4.60
2017-12-11T20:17:38.245Z,4.60
2017-12-11T20:20:05.773Z,4.50
2017-12-11T20:22:33.337Z,4.50
2017-12-11T20:25:00.869Z,4.50
2017-12-11T20:27:29.176Z,4.50
2017-12-11T20:29:56.726Z,4.50
2017-12-11T20:32:24.260Z,4.50
2017-12-11T20:34:52.567Z,4.50
2017-12-11T20:37:20.119Z,4.50
2017-12-11T20:39:48.419Z,4.60
2017-12-11T20:42:15.982Z,4.60
2017-12-11T20:44:43.506Z,4.60
2017-12-11T20:47:11.853Z,4.50
2017-12-11T20:49:39.377Z,4.50
2017-12-11T20:52:06.943Z,4.50
2017-12-11T20:54:34.906Z,4.60
2017-12-11T20:57:02.876Z,4.50
2017-12-11T20:59:30.854Z,4.50
2017-12-11T21:01:59.021Z,4.50
2017-12-11T21:04:27.608Z,4.50
2017-12-11T21:06:56.391Z,4.50
2017-12-11T21:09:25.060Z,4.50
2017-12-11T21:11:53.029Z,4.50
2017-12-11T21:14:21.922Z,4.50
2017-12-11T21:16:49.936Z,4.50
2017-12-11T21:19:17.904Z,4.40
2017-12-11T21:21:45.976Z,4.50
2017-12-11T21:24:13.949Z,4.40
2017-12-11T21:26:41.917Z,4.40
2017-12-11T21:29:09.988Z,4.40
2017-12-11T21:31:38.060Z,4.40
2017-12-11T21:34:05.965Z,4.40
2017-12-11T21:36:34.065Z,4.40
2017-12-11T21:39:02.036Z,4.40
2017-12-11T21:41:30.208Z,4.40
2017-12-11T21:43:58.177Z,4.40
2017-12-11T21:46:26.311Z,4.40
2017-12-11T21:48:54.361Z,4.50
2017-12-11T21:51:22.393Z,4.50
2017-12-11T21:53:49.976Z,4.50
2017-12-11T21:56:17.564Z,4.50
2017-12-11T21:58:45.086Z,4.50
2017-12-11T22:01:12.654Z,4.50
2017-12-11T22:03:40.191Z,4.60
2017-12-11T22:06:07.742Z,4.50
2017-12-11T22:08:35.273Z,4.50
2017-12-11T22:11:03.594Z,4.50
2017-12-11T22:13:31.132Z,4.50
2017-12-11T22:15:58.708Z,4.50
2017-12-11T22:18:26.253Z,4.60
2017-12-11T22:20:53.830Z,4.50
2017-12-11T22:23:21.370Z,4.50
2017-12-11T22:25:48.901Z,4.50
2017-12-11T22:28:17.204Z,4.50
2017-12-11T22:30:44.745Z,4.50
2017-12-11T22:33:12.284Z,4.50
2017-12-11T22:35:40.599Z,4.50
2017-12-11T22:38:08.169Z,4.50
2017-12-11T22:40:35.680Z,4.50
2017-12-11T22:43:04.006Z,4.60
2017-12-11T22:45:31.538Z,4.50
2017-12-11T22:47:59.097Z,4.50
2017-12-11T22:50:26.676Z,4.50
2017-12-11T22:52:54.238Z,4.50
2017-12-11T22:55:21.774Z,4.60
2017-12-11T22:57:49.322Z,4.50
2017-12-11T23:00:22.640Z,4.50
2017-12-11T23:02:50.213Z,4.50
2017-12-11T23:05:17.746Z,4.60
2017-12-11T23:07:45.271Z,4.50
2017-12-11T23:10:12.819Z,4.60
2017-12-11T23:12:40.341Z,4.60
2017-12-11T23:15:07.898Z,4.60
2017-12-11T23:17:35.444Z,4.60
2017-12-11T23:20:02.996Z,4.60
2017-12-11T23:22:30.520Z,4.60
2017-12-11T23:24:58.066Z,4.60
2017-12-11T23:27:26.376Z,4.60
2017-12-11T23:29:53.918Z,4.60
2017-12-11T23:32:21.466Z,4.60
2017-12-11T23:34:50.616Z,4.60
2017-12-11T23:37:18.142Z,4.60
2017-12-11T23:39:45.696Z,4.60
2017-12-11T23:42:13.240Z,4.60
2017-12-11T23:44:41.557Z,4.60
2017-12-11T23:47:09.077Z,4.60
2017-12-11T23:49:37.405Z,4.60
2017-12-11T23:52:04.935Z,4.50
2017-12-11T23:54:34.412Z,4.60
2017-12-11T23:57:02.725Z,4.70
2017-12-11T23:59:30.268Z,4.70
